Time;durP1;ratioP1;P1;durP2;ratioP2;P2;SDS_P1;SDS_P2;PMS_P1;PMS_P2;Temp;Humidity;BMP_temperature;BMP_pressure;BME280_temperature;BME280_humidity;BME280_pressure;Samples;Min_cycle;Max_cycle;Signal;HPM_P1;HPM_P2
2022/04/24 05:50:07;;;;;;;;;;;;;;;7.98;100.00;97279.69;5838954;23;19969;-73
2022/04/24 05:52:34;;;;;;;;;;;;;;;7.92;100.00;97265.41;4886642;29;19949;-74
2022/04/24 05:55:01;;;;;;;;;;;;;;;7.91;100.00;97266.63;4885269;29;19966;-74
2022/04/24 05:57:28;;;;;;;;;;;;;;;7.86;100.00;97289.31;4861459;29;19955;-74
2022/04/24 05:59:58;;;;;;;;;;;;;;;7.79;100.00;97281.00;4883010;29;19965;-74
2022/04/24 06:02:25;;;;;;;;;;;;;;;7.74;100.00;97273.06;4879041;29;19959;-74
2022/04/24 06:04:53;;;;;;;;;;;;;;;7.72;100.00;97275.47;4883679;29;19957;-74
2022/04/24 06:07:20;;;;;;;;;;;;;;;7.70;100.00;97288.19;4884247;29;19950;-74
2022/04/24 06:09:48;;;;;;;;;;;;;;;7.63;100.00;97291.78;4884413;29;19962;-74
2022/04/24 06:12:15;;;;;;;;;;;;;;;7.57;100.00;97289.81;4883989;29;20337;-74
2022/04/24 06:14:42;;;;;;;;;;;;;;;7.56;100.00;97268.75;4882984;29;20265;-74
2022/04/24 06:17:09;;;;;;;;;;;;;;;7.47;100.00;97277.53;4885667;29;19957;-74
2022/04/24 06:19:37;;;;;;;;;;;;;;;7.41;100.00;97278.34;4885364;29;19957;-74
2022/04/24 06:22:04;;;;;;;;;;;;;;;7.35;100.00;97272.41;4884817;29;19954;-74
2022/04/24 06:24:31;;;;;;;;;;;;;;;7.33;100.00;97276.78;4884441;29;19947;-74
2022/04/24 06:27:00;;;;;;;;;;;;;;;7.28;100.00;97267.66;4864964;29;20202;-74
2022/04/24 06:29:27;;;;;;;;;;;;;;;7.29;100.00;97280.34;4884310;29;19955;-74
2022/04/24 06:31:54;;;;;;;;;;;;;;;7.37;100.00;97277.56;4883855;29;19950;-74
2022/04/24 06:34:21;;;;;;;;;;;;;;;7.35;100.00;97282.72;4884924;29;19972;-74
2022/04/24 06:36:49;;;;;;;;;;;;;;;7.28;100.00;97275.19;4883327;29;19951;-74
2022/04/24 06:39:16;;;;;;;;;;;;;;;7.37;100.00;97260.88;4888547;29;19948;-74
2022/04/24 06:41:43;;;;;;;;;;;;;;;7.38;100.00;97259.69;4903278;29;19956;-74
2022/04/24 06:44:20;;;;;;;;;;;;;;;7.39;100.00;97266.81;4878799;29;19957;-74
2022/04/24 06:46:47;;;;;;;;;;;;;;;7.33;100.00;97269.22;4884393;29;19954;-74
2022/04/24 06:49:15;;;;;;;;;;;;;;;7.33;100.00;97252.56;4884622;29;19959;-74
2022/04/24 06:51:42;;;;;;;;;;;;;;;7.34;100.00;97261.66;4884571;29;19974;-74
2022/04/24 06:54:10;;;;;;;;;;;;;;;7.33;100.00;97269.22;4883578;29;20002;-74
2022/04/24 06:56:37;;;;;;;;;;;;;;;7.28;100.00;97266.88;4883651;29;19954;-74
2022/04/24 06:59:04;;;;;;;;;;;;;;;7.20;100.00;97268.88;4878564;29;19953;-75
2022/04/24 07:01:31;;;;;;;;;;;;;;;7.23;100.00;97262.50;4875245;29;20391;-74
2022/04/24 07:03:59;;;;;;;;;;;;;;;7.18;100.00;97249.00;4878824;29;20333;-74
2022/04/24 07:06:26;;;;;;;;;;;;;;;7.17;100.00;97261.31;4875471;29;19949;-74
2022/04/24 07:08:54;;;;;;;;;;;;;;;7.17;100.00;97266.88;4882831;29;19949;-74
2022/04/24 07:11:22;;;;;;;;;;;;;;;7.17;100.00;97280.78;4883450;29;19949;-75
2022/04/24 07:13:49;;;;;;;;;;;;;;;7.22;100.00;97269.25;4883964;29;19979;-75
2022/04/24 07:16:16;;;;;;;;;;;;;;;7.25;100.00;97274.03;4884432;29;20338;-75
2022/04/24 07:18:43;;;;;;;;;;;;;;;7.27;100.00;97274.41;4884296;29;19962;-74
2022/04/24 07:21:11;;;;;;;;;;;;;;;7.23;100.00;97261.72;4884179;29;19950;-74
2022/04/24 07:23:38;;;;;;;;;;;;;;;7.25;100.00;97276.78;4884047;29;19954;-74
2022/04/24 07:26:05;;;;;;;;;;;;;;;7.26;100.00;97278.38;4884672;29;19948;-74
2022/04/24 07:28:33;;;;;;;;;;;;;;;7.32;100.00;97266.84;4884247;29;19955;-74
2022/04/24 07:31:00;;;;;;;;;;;;;;;7.20;100.00;97274.44;4883559;29;20326;-74
2022/04/24 07:33:27;;;;;;;;;;;;;;;7.17;100.00;97269.66;4883654;29;19982;-74
2022/04/24 07:35:54;;;;;;;;;;;;;;;7.15;100.00;97269.28;4884137;29;19951;-74
2022/04/24 07:38:22;;;;;;;;;;;;;;;7.14;100.00;97267.66;4883498;29;20385;-75
2022/04/24 07:40:49;;;;;;;;;;;;;;;7.10;100.00;97266.09;4883163;29;19957;-74
2022/04/24 07:43:16;;;;;;;;;;;;;;;7.11;100.00;97265.72;4884291;29;20375;-74
2022/04/24 07:45:47;;;;;;;;;;;;;;;7.15;100.00;97257.34;4883630;29;19957;-74
2022/04/24 07:48:15;;;;;;;;;;;;;;;7.26;100.00;97253.34;4883607;29;20353;-74
2022/04/24 07:50:43;;;;;;;;;;;;;;;7.31;100.00;97256.94;4883596;29;20279;-74
2022/04/24 07:53:10;;;;;;;;;;;;;;;7.38;100.00;97245.78;4883742;29;19950;-74
2022/04/24 07:55:41;;;;;;;;;;;;;;;7.38;100.00;97232.66;4883076;29;19972;-75
2022/04/24 07:58:09;;;;;;;;;;;;;;;7.44;100.00;97238.59;4883236;29;19958;-74
2022/04/24 08:00:37;;;;;;;;;;;;;;;7.56;100.00;97227.81;4883099;29;19958;-74
2022/04/24 08:03:11;;;;;;;;;;;;;;;7.57;100.00;97229.41;4883283;29;19955;-74
2022/04/24 08:05:40;;;;;;;;;;;;;;;7.62;100.00;97234.56;4883419;29;19962;-74
2022/04/24 08:08:14;;;;;;;;;;;;;;;7.64;100.00;97237.72;4883805;29;19952;-74
2022/04/24 08:10:43;;;;;;;;;;;;;;;7.71;100.00;97242.47;4883897;29;19950;-74
2022/04/24 08:13:10;;;;;;;;;;;;;;;7.71;100.00;97239.66;4882846;29;19950;-75
2022/04/24 08:15:40;;;;;;;;;;;;;;;7.74;100.00;97233.31;4883359;29;20110;-74
2022/04/24 08:18:09;;;;;;;;;;;;;;;7.77;100.00;97222.16;4883671;29;19951;-74
2022/04/24 08:20:36;;;;;;;;;;;;;;;7.82;100.00;97230.06;4883287;29;20249;-75
2022/04/24 08:23:04;;;;;;;;;;;;;;;7.93;100.00;97239.16;4883642;29;19956;-75
2022/04/24 08:25:36;;;;;;;;;;;;;;;8.06;100.00;97233.94;4883511;29;19956;-74
2022/04/24 08:28:07;;;;;;;;;;;;;;;8.11;100.00;97243.84;4883464;29;20217;-75
2022/04/24 08:30:36;;;;;;;;;;;;;;;8.14;100.00;97246.63;4882825;29;19956;-74
2022/04/24 08:33:03;;;;;;;;;;;;;;;8.23;100.00;97243.34;4883419;29;19959;-74
2022/04/24 08:35:30;;;;;;;;;;;;;;;8.25;100.00;97238.97;4882715;29;20001;-74
2022/04/24 08:37:58;;;;;;;;;;;;;;;8.37;100.00;97246.88;4883206;29;19951;-74
2022/04/24 08:40:25;;;;;;;;;;;;;;;8.50;100.00;97256.34;4867061;29;19951;-75
2022/04/24 08:42:54;;;;;;;;;;;;;;;8.62;100.00;97268.19;4883605;29;19952;-75
2022/04/24 08:45:29;;;;;;;;;;;;;;;8.71;100.00;97262.91;4882476;29;19955;-74
2022/04/24 08:47:57;;;;;;;;;;;;;;;8.77;100.00;97266.88;4883689;29;20342;-74
2022/04/24 08:50:27;;;;;;;;;;;;;;;8.75;100.00;97274.84;4883268;29;20260;-75
2022/04/24 08:52:55;;;;;;;;;;;;;;;8.82;100.00;97274.78;4882942;29;19955;-74
2022/04/24 08:55:24;;;;;;;;;;;;;;;8.82;100.00;97277.56;4866349;29;19970;-74
2022/04/24 08:57:51;;;;;;;;;;;;;;;8.82;100.00;97275.59;4882921;29;19949;-74
2022/04/24 09:00:18;;;;;;;;;;;;;;;8.81;100.00;97281.56;4883287;29;20337;-75
2022/04/24 09:02:48;;;;;;;;;;;;;;;8.70;100.00;97292.00;4883423;29;19957;-74
2022/04/24 09:05:16;;;;;;;;;;;;;;;8.64;100.00;97302.78;4883410;29;19949;-74
2022/04/24 09:07:46;;;;;;;;;;;;;;;8.67;100.00;97303.97;4882688;29;19957;-75
2022/04/24 09:10:53;;;;;;;;;;;;;;;8.68;100.00;97309.13;4882525;29;19956;-75
2022/04/24 09:16:35;;;;;;;;;;;;;;;8.77;100.00;97317.03;4879960;29;19976;-75
2022/04/24 09:19:03;;;;;;;;;;;;;;;8.79;100.00;97314.63;4888062;29;20357;-74
2022/04/24 09:21:31;;;;;;;;;;;;;;;8.88;100.00;97309.38;4887168;29;19956;-74
2022/04/24 09:24:00;;;;;;;;;;;;;;;8.85;100.00;97315.78;4899777;29;19953;-74
2022/04/24 09:26:27;;;;;;;;;;;;;;;8.78;100.00;97324.22;4890261;29;19949;-74
2022/04/24 09:29:11;;;;;;;;;;;;;;;8.79;100.00;97323.00;4887567;29;19979;-75
2022/04/24 09:31:43;;;;;;;;;;;;;;;8.69;100.00;97315.50;4885992;29;19955;-75
2022/04/24 09:34:10;;;;;;;;;;;;;;;8.66;100.00;97322.69;4887803;29;20241;-75
2022/04/24 09:36:38;;;;;;;;;;;;;;;8.65;100.00;97331.47;4886903;29;21045;-75
2022/04/24 09:39:05;;;;;;;;;;;;;;;8.68;100.00;97331.41;4884305;29;20289;-74
2022/04/24 09:41:32;;;;;;;;;;;;;;;8.63;100.00;97319.94;4886086;29;19949;-75
2022/04/24 09:44:10;;;;;;;;;;;;;;;8.62;100.00;97319.13;4891057;29;19953;-75
2022/04/24 09:46:37;;;;;;;;;;;;;;;8.63;100.00;97328.28;4885624;29;19957;-75
2022/04/24 09:49:07;;;;;;;;;;;;;;;8.54;100.00;97335.09;4882492;29;20247;-75
2022/04/24 09:51:40;;;;;;;;;;;;;;;8.54;100.00;97321.16;4883414;29;19981;-75
2022/04/24 09:54:07;;;;;;;;;;;;;;;8.61;100.00;97331.47;4873860;29;20345;-73
2022/04/24 09:56:35;;;;;;;;;;;;;;;8.70;100.00;97326.25;4877194;29;19994;-75
2022/04/24 09:59:03;;;;;;;;;;;;;;;8.73;100.00;97322.63;4875097;29;19964;-74
2022/04/24 10:01:30;;;;;;;;;;;;;;;8.77;100.00;97319.81;4875653;29;19958;-74
2022/04/24 10:03:58;;;;;;;;;;;;;;;8.79;100.00;97325.78;4876418;29;19956;-74
2022/04/24 10:06:25;;;;;;;;;;;;;;;8.85;100.00;97326.94;4874435;29;19959;-75
2022/04/24 10:08:52;;;;;;;;;;;;;;;8.95;100.00;97320.50;4877475;29;19953;-75
2022/04/24 10:11:20;;;;;;;;;;;;;;;9.03;100.00;97313.63;4859126;29;19956;-74
2022/04/24 10:14:04;;;;;;;;;;;;;;;9.07;100.00;97306.81;4876594;29;19949;-74
2022/04/24 10:16:34;;;;;;;;;;;;;;;9.24;100.00;97305.84;4875820;29;19967;-75
2022/04/24 10:19:36;;;;;;;;;;;;;;;9.49;100.00;97304.81;4878371;29;19950;-75
2022/04/24 10:22:21;;;;;;;;;;;;;;;9.58;100.00;97305.13;4838303;29;19948;-76
2022/04/24 10:24:57;;;;;;;;;;;;;;;9.70;100.00;97291.44;4876636;29;19950;-74
2022/04/24 10:27:35;;;;;;;;;;;;;;;9.86;100.00;97293.63;4876266;29;20215;-74
2022/04/24 10:30:02;;;;;;;;;;;;;;;9.98;100.00;97292.31;4878577;29;20331;-74
2022/04/24 10:32:33;;;;;;;;;;;;;;;10.12;100.00;97286.56;4877498;29;19961;-74
2022/04/24 10:35:00;;;;;;;;;;;;;;;10.44;100.00;97284.88;4876653;29;19975;-75
2022/04/24 10:37:32;;;;;;;;;;;;;;;10.73;100.00;97293.66;4875869;29;19956;-74
2022/04/24 10:40:00;;;;;;;;;;;;;;;11.02;100.00;97282.78;4876237;29;20338;-74
2022/04/24 10:42:34;;;;;;;;;;;;;;;11.14;100.00;97288.56;4880626;29;20334;-74
2022/04/24 10:45:04;;;;;;;;;;;;;;;11.34;100.00;97288.63;4884908;29;19948;-74
2022/04/24 10:47:50;;;;;;;;;;;;;;;11.55;100.00;97293.03;4886802;29;19949;-74
2022/04/24 10:50:20;;;;;;;;;;;;;;;11.78;100.00;97288.22;4883247;29;19950;-74
2022/04/24 10:52:49;;;;;;;;;;;;;;;12.00;100.00;97294.19;4884375;29;19953;-74
2022/04/24 10:55:18;;;;;;;;;;;;;;;12.16;100.00;97287.81;4883598;29;19964;-74
2022/04/24 10:57:48;;;;;;;;;;;;;;;12.18;100.00;97300.19;4885607;29;19952;-74
2022/04/24 11:00:23;;;;;;;;;;;;;;;12.34;100.00;97289.03;4869726;29;20359;-74
2022/04/24 11:02:51;;;;;;;;;;;;;;;12.41;100.00;97294.50;4885073;29;19956;-74
2022/04/24 11:05:20;;;;;;;;;;;;;;;12.48;100.00;97287.91;4871707;29;19949;-74
2022/04/24 11:07:47;;;;;;;;;;;;;;;12.39;100.00;97299.75;4888675;29;19959;-74
2022/04/24 11:10:20;;;;;;;;;;;;;;;12.32;100.00;97297.06;4884240;29;19950;-74
2022/04/24 11:12:49;;;;;;;;;;;;;;;12.16;100.00;97311.03;4889647;29;19954;-74
2022/04/24 11:15:16;;;;;;;;;;;;;;;12.06;100.00;97314.06;4888936;29;20001;-74
2022/04/24 11:17:43;;;;;;;;;;;;;;;11.95;100.00;97319.09;4881283;29;20332;-74
2022/04/24 11:20:13;;;;;;;;;;;;;;;11.95;100.00;97313.50;4877445;29;19952;-74
2022/04/24 11:22:51;;;;;;;;;;;;;;;11.89;100.00;97316.00;4893390;29;19961;-76
2022/04/24 11:25:19;;;;;;;;;;;;;;;11.78;100.00;97309.81;4885078;29;19974;-74
2022/04/24 11:27:51;;;;;;;;;;;;;;;11.80;100.00;97310.19;4866884;29;19954;-74
2022/04/24 11:30:22;;;;;;;;;;;;;;;11.77;100.00;97308.22;4883641;29;19959;-74
2022/04/24 11:32:57;;;;;;;;;;;;;;;11.85;100.00;97309.69;4884038;29;19951;-74
2022/04/24 11:35:26;;;;;;;;;;;;;;;11.84;100.00;97314.50;4881594;29;19960;-74
2022/04/24 11:37:54;;;;;;;;;;;;;;;11.81;100.00;97315.34;4882539;29;19960;-74
2022/04/24 11:40:22;;;;;;;;;;;;;;;11.88;100.00;97313.63;4882173;29;19954;-74
2022/04/24 11:43:06;;;;;;;;;;;;;;;11.83;100.00;97314.94;4883386;29;19949;-74
2022/04/24 11:51:17;;;;;;;;;;;;;;;11.97;100.00;97309.03;4879431;29;20397;-74
2022/04/24 11:54:09;;;;;;;;;;;;;;;11.86;100.00;97309.25;4883826;29;19946;-74
2022/04/24 11:56:37;;;;;;;;;;;;;;;11.84;100.00;97299.69;4881350;29;19974;-74
2022/04/24 11:59:11;;;;;;;;;;;;;;;11.81;100.00;97306.94;4893485;29;19949;-73
2022/04/24 12:01:39;;;;;;;;;;;;;;;11.83;100.00;97298.13;4881821;29;19948;-73
2022/04/24 12:04:06;;;;;;;;;;;;;;;11.80;100.00;97307.38;4878431;29;19951;-75
2022/04/24 12:06:33;;;;;;;;;;;;;;;11.74;100.00;97304.28;4883420;29;19944;-75
2022/04/24 12:09:07;;;;;;;;;;;;;;;11.86;100.00;97314.06;4882035;29;20361;-74
2022/04/24 12:11:37;;;;;;;;;;;;;;;11.77;100.00;97311.03;4882751;29;19956;-75
2022/04/24 12:14:06;;;;;;;;;;;;;;;11.84;100.00;97313.69;4882384;29;19948;-75
2022/04/24 12:16:40;;;;;;;;;;;;;;;11.73;100.00;97315.94;4881740;29;20378;-74
2022/04/24 12:19:09;;;;;;;;;;;;;;;11.62;100.00;97310.47;4881725;29;19947;-74
2022/04/24 12:21:45;;;;;;;;;;;;;;;11.66;100.00;97314.00;4875850;29;19950;-73
2022/04/24 12:24:12;;;;;;;;;;;;;;;11.64;100.00;97308.03;4881293;29;19957;-73
2022/04/24 12:26:47;;;;;;;;;;;;;;;11.49;100.00;97315.13;4877892;29;19952;-73
2022/04/24 12:29:17;;;;;;;;;;;;;;;11.48;100.00;97316.34;4869143;29;19954;-74
2022/04/24 12:31:46;;;;;;;;;;;;;;;11.55;100.00;97318.22;4878617;29;20322;-74
2022/04/24 12:34:14;;;;;;;;;;;;;;;11.42;100.00;97309.66;4881782;29;19957;-73
2022/04/24 12:36:48;;;;;;;;;;;;;;;11.39;100.00;97316.13;4882737;29;19983;-73
2022/04/24 12:39:22;;;;;;;;;;;;;;;11.36;100.00;97316.19;4882501;29;19958;-73
2022/04/24 12:41:49;;;;;;;;;;;;;;;11.30;100.00;97318.66;4881672;29;20231;-74
2022/04/24 12:44:17;;;;;;;;;;;;;;;11.37;100.00;97314.97;4881400;29;19969;-74
2022/04/24 12:46:50;;;;;;;;;;;;;;;11.39;100.00;97321.72;4884803;29;19947;-73
2022/04/24 12:49:31;;;;;;;;;;;;;;;11.39;100.00;97318.13;4884082;29;19955;-74
2022/04/24 12:51:58;;;;;;;;;;;;;;;11.43;100.00;97310.44;4880143;29;19970;-74
2022/04/24 12:54:27;;;;;;;;;;;;;;;11.39;100.00;97323.72;4882053;29;19951;-73
2022/04/24 12:56:54;;;;;;;;;;;;;;;11.43;100.00;97327.25;4883771;29;19977;-73
2022/04/24 12:59:22;;;;;;;;;;;;;;;11.44;100.00;97328.84;4877683;29;19953;-73
2022/04/24 13:01:51;;;;;;;;;;;;;;;11.44;100.00;97320.44;4884403;29;19957;-74
2022/04/24 13:04:20;;;;;;;;;;;;;;;11.45;100.00;97325.59;4886503;29;19953;-73
2022/04/24 13:06:48;;;;;;;;;;;;;;;11.48;100.00;97316.34;4885807;29;19955;-74
2022/04/24 13:09:16;;;;;;;;;;;;;;;11.52;100.00;97319.06;4882949;29;19956;-74
2022/04/24 13:11:43;;;;;;;;;;;;;;;11.55;100.00;97321.81;4881392;29;19961;-73
2022/04/24 13:14:10;;;;;;;;;;;;;;;11.57;100.00;97318.59;4886189;29;19950;-74
2022/04/24 13:19:24;;;;;;;;;;;;;;;11.63;100.00;97314.09;4885721;29;19959;-73
2022/04/24 13:21:54;;;;;;;;;;;;;;;11.66;100.00;97311.19;4886058;29;19951;-73
2022/04/24 13:24:22;;;;;;;;;;;;;;;11.63;100.00;97314.09;4885172;29;19959;-74
2022/04/24 13:26:49;;;;;;;;;;;;;;;11.73;100.00;97310.31;4885413;29;19962;-73
2022/04/24 13:29:16;;;;;;;;;;;;;;;11.76;100.00;97310.25;4886292;29;19949;-73
2022/04/24 13:31:47;;;;;;;;;;;;;;;11.85;100.00;97310.47;4885412;29;19950;-74
2022/04/24 13:34:15;;;;;;;;;;;;;;;11.85;100.00;97316.09;4885568;29;19946;-74
2022/04/24 13:36:44;;;;;;;;;;;;;;;11.91;100.00;97316.34;4883287;29;19971;-74
2022/04/24 13:39:12;;;;;;;;;;;;;;;11.89;100.00;97310.41;4884812;29;20283;-74
2022/04/24 13:41:39;;;;;;;;;;;;;;;11.98;100.00;97307.84;4886081;29;19949;-73
2022/04/24 13:44:06;;;;;;;;;;;;;;;12.00;100.00;97311.00;4876434;29;19961;-73
2022/04/24 13:46:34;;;;;;;;;;;;;;;12.09;100.00;97304.78;4881516;29;19980;-73
2022/04/24 13:49:03;;;;;;;;;;;;;;;12.20;100.00;97306.13;4882672;29;19956;-73
2022/04/24 13:51:30;;;;;;;;;;;;;;;12.18;100.00;97294.56;4867402;29;19977;-73
2022/04/24 13:53:57;;;;;;;;;;;;;;;12.26;100.00;97304.44;4875944;29;19951;-73
2022/04/24 13:56:24;;;;;;;;;;;;;;;12.42;100.00;97298.09;4884700;29;19947;-73
2022/04/24 13:58:52;;;;;;;;;;;;;;;12.60;100.00;97303.28;4884778;29;20367;-73
2022/04/24 14:01:19;;;;;;;;;;;;;;;12.67;100.00;97300.31;4884176;29;19951;-73
2022/04/24 14:03:46;;;;;;;;;;;;;;;12.74;100.00;97292.50;4884383;29;19958;-73
2022/04/24 14:06:13;;;;;;;;;;;;;;;12.85;100.00;97293.06;4884784;29;19957;-73
2022/04/24 14:08:41;;;;;;;;;;;;;;;12.88;100.00;97289.41;4884700;29;19958;-73
2022/04/24 14:11:10;;;;;;;;;;;;;;;12.65;100.00;97291.53;4884161;29;21436;-73
2022/04/24 14:13:38;;;;;;;;;;;;;;;12.85;100.00;97289.47;4884708;29;19949;-73
2022/04/24 14:16:06;;;;;;;;;;;;;;;12.81;100.00;97283.97;4884187;29;19951;-74
2022/04/24 14:18:34;;;;;;;;;;;;;;;12.86;100.00;97279.84;4883715;29;19970;-73
2022/04/24 14:21:01;;;;;;;;;;;;;;;12.86;100.00;97272.19;4884056;29;19952;-73
2022/04/24 14:23:28;;;;;;;;;;;;;;;13.09;100.00;97285.28;4883761;29;20351;-73
2022/04/24 14:25:56;;;;;;;;;;;;;;;13.08;100.00;97278.13;4883842;29;19959;-73
2022/04/24 14:28:24;;;;;;;;;;;;;;;13.06;100.00;97280.56;4884404;29;20227;-73
2022/04/24 14:30:52;;;;;;;;;;;;;;;13.05;100.00;97276.16;4885156;29;19950;-73
2022/04/24 14:33:19;;;;;;;;;;;;;;;13.03;100.00;97275.81;4885252;29;19956;-73
2022/04/24 14:35:46;;;;;;;;;;;;;;;13.11;100.00;97282.81;4884567;29;19953;-73
2022/04/24 14:38:14;;;;;;;;;;;;;;;13.24;100.00;97274.50;4885367;29;19972;-73
2022/04/24 14:40:42;;;;;;;;;;;;;;;13.14;100.00;97262.31;4884494;29;20216;-73
2022/04/24 14:43:10;;;;;;;;;;;;;;;13.15;100.00;97266.72;4882986;29;19947;-73
2022/04/24 14:56:41;;;;;;;;;;;;;;;13.08;100.00;97270.47;4884052;29;19951;-73
2022/04/24 14:59:09;;;;;;;;;;;;;;;13.07;100.00;97273.72;4884170;29;19958;-73
2022/04/24 15:01:36;;;;;;;;;;;;;;;13.13;100.00;97272.75;4868038;29;19950;-73
2022/04/24 15:04:04;;;;;;;;;;;;;;;13.05;100.00;97284.56;4883729;29;20377;-73
2022/04/24 15:06:31;;;;;;;;;;;;;;;12.99;100.00;97281.50;4879331;29;19950;-73
2022/04/24 15:08:58;;;;;;;;;;;;;;;12.92;100.00;97281.66;4883409;29;20350;-73
2022/04/24 15:11:27;;;;;;;;;;;;;;;12.98;100.00;97290.38;4884335;29;19946;-73
2022/04/24 15:13:55;;;;;;;;;;;;;;;12.93;100.00;97288.88;4883245;29;19957;-73
2022/04/24 15:16:22;;;;;;;;;;;;;;;12.92;100.00;97286.47;4883469;29;19957;-73
2022/04/24 15:18:49;;;;;;;;;;;;;;;12.91;100.00;97293.34;4883653;29;19976;-73
2022/04/24 15:21:17;;;;;;;;;;;;;;;12.94;100.00;97290.44;4882313;29;19949;-74
2022/04/24 15:23:49;;;;;;;;;;;;;;;12.98;100.00;97287.56;4876995;29;19955;-73
2022/04/24 15:26:17;;;;;;;;;;;;;;;12.96;100.00;97293.59;4883610;29;19951;-73
2022/04/24 15:28:44;;;;;;;;;;;;;;;12.95;100.00;97294.03;4872568;29;19951;-73
2022/04/24 15:31:11;;;;;;;;;;;;;;;12.90;100.00;97291.75;4893053;29;19950;-73
2022/04/24 15:33:39;;;;;;;;;;;;;;;12.86;100.00;97291.06;4883519;29;19948;-73
2022/04/24 15:36:06;;;;;;;;;;;;;;;12.84;100.00;97285.06;4884265;29;20219;-73
2022/04/24 15:38:34;;;;;;;;;;;;;;;12.82;100.00;97296.75;4883498;29;19974;-73
2022/04/24 15:41:01;;;;;;;;;;;;;;;12.80;100.00;97290.78;4881556;29;19952;-73
2022/04/24 15:43:28;;;;;;;;;;;;;;;12.69;100.00;97292.25;4883138;29;19950;-73
2022/04/24 15:45:55;;;;;;;;;;;;;;;12.73;100.00;97285.34;4883678;29;19949;-73
2022/04/24 15:48:24;;;;;;;;;;;;;;;12.67;100.00;97292.69;4883590;29;19950;-73
2022/04/24 15:50:52;;;;;;;;;;;;;;;12.71;100.00;97285.00;4883244;29;19969;-73
2022/04/24 15:53:24;;;;;;;;;;;;;;;12.71;100.00;97287.00;4883338;29;19955;-73
2022/04/24 15:55:51;;;;;;;;;;;;;;;12.81;100.00;97292.38;4883736;29;20259;-73
2022/04/24 15:58:19;;;;;;;;;;;;;;;12.86;100.00;97293.88;4883567;29;20315;-74
2022/04/24 16:00:49;;;;;;;;;;;;;;;12.74;100.00;97294.56;4883239;29;19949;-74
2022/04/24 16:03:16;;;;;;;;;;;;;;;12.79;100.00;97294.03;4883496;29;19954;-73
2022/04/24 16:05:43;;;;;;;;;;;;;;;12.94;100.00;97289.63;4880116;29;20339;-73
2022/04/24 16:08:11;;;;;;;;;;;;;;;12.84;100.00;97287.88;4864488;29;20330;-74
2022/04/24 16:10:39;;;;;;;;;;;;;;;12.71;100.00;97287.81;4890931;29;19953;-74
2022/04/24 16:13:06;;;;;;;;;;;;;;;12.74;100.00;97291.75;4881347;29;19984;-74
2022/04/24 16:15:34;;;;;;;;;;;;;;;12.61;100.00;97297.25;4882572;29;19950;-73
2022/04/24 16:18:02;;;;;;;;;;;;;;;12.62;100.00;97303.66;4881484;29;19970;-74
2022/04/24 16:20:30;;;;;;;;;;;;;;;12.59;100.00;97304.50;4881967;29;19960;-74
2022/04/24 16:22:57;;;;;;;;;;;;;;;12.47;100.00;97303.19;4883179;29;19950;-74
2022/04/24 16:25:25;;;;;;;;;;;;;;;12.39;100.00;97296.94;4882351;29;20373;-74
2022/04/24 16:27:52;;;;;;;;;;;;;;;12.37;100.00;97298.59;4886262;29;19950;-75
2022/04/24 16:30:20;;;;;;;;;;;;;;;12.37;100.00;97296.56;4886330;29;19956;-74
2022/04/24 16:32:51;;;;;;;;;;;;;;;12.31;100.00;97291.91;4883167;29;19950;-74
2022/04/24 16:35:21;;;;;;;;;;;;;;;12.13;100.00;97295.09;4888411;29;19953;-74
2022/04/24 16:37:49;;;;;;;;;;;;;;;12.04;100.00;97303.28;4886268;29;19969;-74
2022/04/24 16:40:17;;;;;;;;;;;;;;;11.99;100.00;97297.38;4886785;29;19956;-75
2022/04/24 16:42:44;;;;;;;;;;;;;;;12.00;100.00;97294.19;4885263;29;19953;-74
2022/04/24 16:45:12;;;;;;;;;;;;;;;11.98;100.00;97305.03;4887840;29;19951;-74
2022/04/24 16:47:39;;;;;;;;;;;;;;;11.93;100.00;97299.94;4885015;29;19955;-74
2022/04/24 16:50:08;;;;;;;;;;;;;;;11.88;100.00;97306.03;4887155;29;19948;-75
2022/04/24 17:00:54;;;;;;;;;;;;;;;11.66;100.00;97308.41;4887020;29;19949;-74
2022/04/24 17:03:21;;;;;;;;;;;;;;;11.66;100.00;97308.41;4886034;29;19951;-74
2022/04/24 17:05:49;;;;;;;;;;;;;;;11.65;100.00;97312.44;4888992;29;19946;-74
2022/04/24 17:08:18;;;;;;;;;;;;;;;11.59;100.00;97302.16;4885348;29;20339;-74
2022/04/24 17:10:45;;;;;;;;;;;;;;;11.50;100.00;97313.13;4889078;29;19956;-74
2022/04/24 17:13:13;;;;;;;;;;;;;;;11.47;100.00;97314.00;4887835;29;19948;-74
2022/04/24 17:15:40;;;;;;;;;;;;;;;11.47;100.00;97308.41;4888807;29;19974;-74
2022/04/24 17:18:07;;;;;;;;;;;;;;;11.44;100.00;97306.44;4888175;29;19964;-74
2022/04/24 17:20:35;;;;;;;;;;;;;;;11.44;100.00;97309.25;4886724;29;20342;-74
2022/04/24 17:23:05;;;;;;;;;;;;;;;11.39;100.00;97321.72;4885989;29;19954;-74
2022/04/24 17:25:32;;;;;;;;;;;;;;;11.47;100.00;97319.59;4881950;29;19947;-74
2022/04/24 17:28:00;;;;;;;;;;;;;;;11.38;100.00;97331.31;4885798;29;19956;-74
2022/04/24 17:30:27;;;;;;;;;;;;;;;11.42;100.00;97328.47;4888330;29;19950;-74
2022/04/24 17:32:54;;;;;;;;;;;;;;;11.36;100.00;97325.38;4886245;29;19956;-74
2022/04/24 17:35:22;;;;;;;;;;;;;;;11.33;100.00;97329.00;4887047;29;19962;-74
2022/04/24 17:37:50;;;;;;;;;;;;;;;11.32;100.00;97329.44;4887892;29;19953;-74
2022/04/24 17:40:18;;;;;;;;;;;;;;;11.32;100.00;97332.25;4884250;29;19949;-74
2022/04/24 17:42:49;;;;;;;;;;;;;;;11.34;100.00;97335.41;4886948;29;19978;-74
2022/04/24 17:45:17;;;;;;;;;;;;;;;11.30;100.00;97327.06;4885084;29;19984;-74
2022/04/24 17:47:44;;;;;;;;;;;;;;;11.25;100.00;97333.16;4883525;29;19951;-74
2022/04/24 17:50:12;;;;;;;;;;;;;;;11.19;100.00;97335.66;4882849;29;20229;-74
2022/04/24 17:52:40;;;;;;;;;;;;;;;11.14;100.00;97329.75;4884210;29;19952;-74
2022/04/24 17:55:08;;;;;;;;;;;;;;;11.08;100.00;97340.63;4884318;29;20242;-74
2022/04/24 17:57:35;;;;;;;;;;;;;;;10.99;100.00;97340.38;4884773;29;20250;-74
2022/04/24 18:00:04;;;;;;;;;;;;;;;10.90;100.00;97342.13;4882242;29;19971;-74
2022/04/24 18:02:38;;;;;;;;;;;;;;;10.77;100.00;97341.91;4882742;29;19958;-74
2022/04/24 18:05:09;;;;;;;;;;;;;;;10.65;100.00;97350.88;4882576;29;19960;-74
2022/04/24 18:07:37;;;;;;;;;;;;;;;10.57;100.00;97355.00;4884810;29;19955;-75
2022/04/24 18:10:05;;;;;;;;;;;;;;;10.46;100.00;97351.56;4882002;29;19954;-75
2022/04/24 18:12:33;;;;;;;;;;;;;;;10.37;100.00;97360.44;4883728;29;19952;-74
2022/04/24 18:15:02;;;;;;;;;;;;;;;10.31;100.00;97359.34;4881545;29;19950;-74
2022/04/24 18:17:29;;;;;;;;;;;;;;;10.23;100.00;97357.03;4881629;29;19956;-74
2022/04/24 18:19:57;;;;;;;;;;;;;;;10.22;100.00;97372.25;4878295;29;19969;-75
2022/04/24 18:22:25;;;;;;;;;;;;;;;10.14;100.00;97362.34;4878018;29;19958;-75
2022/04/24 18:24:52;;;;;;;;;;;;;;;10.11;100.00;97371.53;4866330;29;19947;-75
2022/04/24 18:27:20;;;;;;;;;;;;;;;10.04;100.00;97371.63;4883444;29;19958;-74
2022/04/24 18:30:07;;;;;;;;;;;;;;;10.06;100.00;97380.38;4880724;29;19952;-75
2022/04/24 18:32:34;;;;;;;;;;;;;;;9.98;100.00;97378.88;4884320;29;19949;-74
2022/04/24 18:35:02;;;;;;;;;;;;;;;9.92;100.00;97386.91;4882361;29;20255;-74
2022/04/24 18:37:37;;;;;;;;;;;;;;;9.86;100.00;97392.16;4881433;29;19950;-74
2022/04/24 18:40:05;;;;;;;;;;;;;;;9.78;100.00;97398.25;4880665;29;20270;-74
2022/04/24 18:42:32;;;;;;;;;;;;;;;9.73;100.00;97405.03;4879605;29;19958;-75
2022/04/24 18:45:00;;;;;;;;;;;;;;;9.69;100.00;97401.50;4888912;29;19970;-74
2022/04/24 18:47:28;;;;;;;;;;;;;;;9.64;100.00;97407.53;4883918;29;19957;-74
2022/04/24 18:49:55;;;;;;;;;;;;;;;9.57;100.00;97415.16;4883101;29;20370;-75
2022/04/24 18:52:23;;;;;;;;;;;;;;;9.48;100.00;97417.66;4884620;29;20351;-75
2022/04/24 18:54:51;;;;;;;;;;;;;;;9.40;100.00;97416.13;4872101;29;20347;-74
2022/04/24 18:57:19;;;;;;;;;;;;;;;9.33;100.00;97416.97;4883118;29;19950;-74
2022/04/24 18:59:46;;;;;;;;;;;;;;;9.32;100.00;97420.19;4878806;29;19973;-75
2022/04/24 19:02:15;;;;;;;;;;;;;;;9.32;100.00;97434.91;4883343;29;19950;-74
2022/04/24 19:07:34;;;;;;;;;;;;;;;9.31;100.00;97430.56;4879000;29;19966;-74
2022/04/24 19:12:53;;;;;;;;;;;;;;;9.31;100.00;97441.72;4883222;29;19959;-74
2022/04/24 19:15:20;;;;;;;;;;;;;;;9.36;100.00;97446.06;4878299;29;19950;-74